Time;durP1;ratioP1;P1;durP2;ratioP2;P2;SDS_P1;SDS_P2;PMS_P1;PMS_P2;Temp;Humidity;BMP_temperature;BMP_pressure;BME280_temperature;BME280_humidity;BME280_pressure;Samples;Min_cycle;Max_cycle;Signal;HPM_P1;HPM_P2
2023/11/23 00:02:05;;;;;;;13.30;9.68;;;;;;;1.21;70.62;99753.25;4984994;28;103334;-64
2023/11/23 00:04:33;;;;;;;12.75;9.65;;;;;;;1.05;71.73;99762.81;4982675;28;103210;-63
2023/11/23 00:07:05;;;;;;;15.18;9.40;;;;;;;0.97;72.49;99776.25;4982109;28;103073;-63
2023/11/23 00:09:33;;;;;;;12.82;8.27;;;;;;;1.00;72.44;99776.13;4985308;28;102845;-63
2023/11/23 00:12:01;;;;;;;10.75;8.38;;;;;;;0.99;72.24;99779.66;4984940;28;104101;-63
2023/11/23 00:14:32;;;;;;;12.10;9.48;;;;;;;0.86;72.54;99773.41;4980934;28;104751;-62
2023/11/23 00:17:00;;;;;;;13.05;9.68;;;;;;;0.93;72.99;99764.31;4984846;28;102835;-63
2023/11/23 00:19:28;;;;;;;9.07;6.63;;;;;;;0.95;72.66;99757.25;4983926;28;103876;-63
2023/11/23 00:21:56;;;;;;;11.43;7.80;;;;;;;1.00;72.57;99752.66;4981482;28;103361;-63
2023/11/23 00:24:27;;;;;;;11.18;7.10;;;;;;;1.04;72.45;99741.13;4987612;28;103013;-63
2023/11/23 00:26:55;;;;;;;10.48;7.03;;;;;;;1.11;72.37;99745.09;4979364;28;103106;-62
2023/11/23 00:29:23;;;;;;;11.07;7.70;;;;;;;0.85;72.57;99762.09;4983565;28;102684;-63
2023/11/23 00:31:51;;;;;;;9.43;7.45;;;;;;;0.80;73.32;99754.53;4983582;28;103320;-64
2023/11/23 00:34:20;;;;;;;14.13;8.80;;;;;;;0.83;72.60;99754.34;4982784;28;103318;-64
2023/11/23 00:36:50;;;;;;;14.20;8.68;;;;;;;0.49;74.19;99750.06;4979592;28;102579;-64
2023/11/23 00:39:18;;;;;;;11.27;7.88;;;;;;;0.66;73.77;99751.78;4987307;28;103894;-64
2023/11/23 00:41:49;;;;;;;13.10;9.07;;;;;;;0.70;73.21;99752.50;4975816;28;103276;-64
2023/11/23 00:44:17;;;;;;;15.30;10.15;;;;;;;0.73;73.30;99753.16;4957851;28;104199;-64
2023/11/23 00:46:45;;;;;;;15.27;10.25;;;;;;;0.66;73.09;99751.78;4983656;28;102738;-64
2023/11/23 00:49:16;;;;;;;11.38;8.55;;;;;;;0.70;73.39;99750.72;4984240;28;103184;-66
2023/11/23 00:51:43;;;;;;;10.25;7.38;;;;;;;0.75;73.61;99740.88;4972207;28;104329;-63
2023/11/23 00:54:12;;;;;;;11.10;8.57;;;;;;;0.87;73.02;99741.19;4986334;28;103277;-62
2023/11/23 00:56:42;;;;;;;10.32;7.38;;;;;;;0.89;73.20;99740.19;4985413;28;102678;-63
2023/11/23 00:59:11;;;;;;;9.80;7.25;;;;;;;0.98;73.35;99747.50;4985003;28;103901;-63
2023/11/23 01:01:40;;;;;;;12.13;8.60;;;;;;;1.07;73.23;99748.78;4984309;28;103042;-63
2023/11/23 01:04:08;;;;;;;11.30;7.65;;;;;;;0.94;73.05;99742.53;4984725;28;103226;-63
2023/11/23 01:06:36;;;;;;;9.63;7.40;;;;;;;1.00;73.42;99737.00;4983105;28;102643;-62
2023/11/23 01:09:05;;;;;;;10.82;8.25;;;;;;;0.95;73.31;99741.59;4984131;28;103772;-63
2023/11/23 01:11:33;;;;;;;11.05;7.93;;;;;;;0.95;73.55;99745.03;4963943;28;104172;-63
2023/11/23 01:14:01;;;;;;;12.35;8.48;;;;;;;0.95;73.56;99745.03;4981405;28;103377;-63
2023/11/23 01:16:30;;;;;;;12.18;9.10;;;;;;;0.88;73.71;99748.91;4984145;28;102623;-64
2023/11/23 01:18:58;;;;;;;12.85;10.23;;;;;;;0.85;73.95;99751.66;4970035;28;102958;-63
2023/11/23 01:21:28;;;;;;;11.70;8.65;;;;;;;0.85;74.35;99756.06;4982790;28;103215;-63
2023/11/23 01:23:56;;;;;;;11.25;8.20;;;;;;;0.91;74.20;99760.97;4972756;28;103280;-63
2023/11/23 01:26:24;;;;;;;13.20;9.55;;;;;;;0.96;74.04;99751.13;4965188;28;102668;-63
2023/11/23 01:28:53;;;;;;;14.32;10.80;;;;;;;0.93;73.10;99759.09;4985353;28;102754;-63
2023/11/23 01:31:21;;;;;;;12.75;8.93;;;;;;;0.87;73.54;99749.00;4970200;28;104213;-62
2023/11/23 01:33:50;;;;;;;11.38;8.57;;;;;;;0.94;73.54;99739.91;4980919;28;103023;-63
2023/11/23 01:36:18;;;;;;;12.07;8.20;;;;;;;1.01;73.77;99756.09;4982226;28;102584;-63
2023/11/23 01:38:47;;;;;;;9.60;7.68;;;;;;;1.06;73.33;99741.88;4969064;28;103025;-63
2023/11/23 01:41:15;;;;;;;11.13;8.55;;;;;;;1.09;73.50;99728.66;4967326;28;103284;-62
2023/11/23 01:43:45;;;;;;;15.10;12.65;;;;;;;1.00;73.44;99737.00;4961243;28;103362;-63
2023/11/23 01:46:13;;;;;;;19.60;16.75;;;;;;;0.91;73.73;99737.47;4966086;28;102739;-63
2023/11/23 01:48:43;;;;;;;18.58;13.27;;;;;;;0.85;74.29;99729.97;4981936;28;103788;-63
2023/11/23 01:51:13;;;;;;;15.52;13.05;;;;;;;0.89;74.40;99727.13;4977004;28;103316;-62
2023/11/23 01:53:42;;;;;;;15.93;12.00;;;;;;;0.92;74.65;99720.91;4987493;28;103644;-63
2023/11/23 01:56:12;;;;;;;14.40;11.45;;;;;;;0.95;74.19;99715.53;4976074;28;102572;-64
2023/11/23 01:58:40;;;;;;;14.95;11.35;;;;;;;1.00;74.36;99703.06;4983099;28;103917;-63
2023/11/23 02:01:08;;;;;;;12.75;10.02;;;;;;;0.97;73.68;99708.44;4982503;28;103437;-63
2023/11/23 02:03:39;;;;;;;14.00;11.30;;;;;;;0.92;74.05;99697.44;4984624;28;103196;-62
2023/11/23 02:06:07;;;;;;;15.18;11.57;;;;;;;0.76;74.43;99698.25;4969765;28;103058;-63
2023/11/23 02:08:37;;;;;;;12.63;9.63;;;;;;;0.75;74.73;99693.94;4985514;28;104108;-64
2023/11/23 02:11:05;;;;;;;13.35;10.02;;;;;;;0.79;74.62;99690.25;4977535;28;104233;-64
2023/11/23 02:13:34;;;;;;;13.05;9.27;;;;;;;0.81;74.49;99679.72;4959990;28;103177;-64
2023/11/23 02:16:02;;;;;;;10.05;7.60;;;;;;;0.78;74.32;99678.13;4971831;28;103124;-64
2023/11/23 02:18:36;;;;;;;13.25;10.10;;;;;;;0.81;74.38;99666.69;4983984;28;102944;-63
2023/11/23 02:21:06;;;;;;;14.85;11.35;;;;;;;0.70;73.88;99669.03;4985407;28;104268;-63
2023/11/23 02:23:34;;;;;;;17.23;11.30;;;;;;;0.63;74.33;99668.53;4980604;28;103173;-63
2023/11/23 02:26:04;;;;;;;13.57;9.27;;;;;;;0.55;75.08;99683.72;4982795;28;102776;-63
2023/11/23 02:28:33;;;;;;;12.68;8.38;;;;;;;0.60;74.99;99686.94;4959605;28;102828;-63
2023/11/23 02:31:01;;;;;;;13.23;9.07;;;;;;;0.62;74.94;99682.47;4966089;28;103308;-63
2023/11/23 02:33:30;;;;;;;14.35;10.73;;;;;;;0.53;74.76;99677.75;4988555;28;103243;-63
2023/11/23 02:35:58;;;;;;;13.95;10.85;;;;;;;0.55;74.82;99681.09;4961077;28;103353;-63
2023/11/23 02:38:26;;;;;;;11.93;8.88;;;;;;;0.53;75.01;99681.19;4981744;28;102988;-63
2023/11/23 02:40:54;;;;;;;12.32;9.02;;;;;;;0.58;74.90;99675.75;4966762;28;104577;-63
2023/11/23 02:43:25;;;;;;;12.73;9.05;;;;;;;0.60;75.06;99666.06;4981516;28;103290;-63
2023/11/23 02:45:54;;;;;;;12.07;8.77;;;;;;;0.63;74.70;99671.97;4984937;28;102635;-63
2023/11/23 02:48:22;;;;;;;11.40;7.95;;;;;;;0.68;74.90;99673.50;4967557;28;102797;-65
2023/11/23 02:50:51;;;;;;;15.80;11.13;;;;;;;0.65;74.58;99677.94;4983199;28;103197;-63
2023/11/23 02:53:30;;;;;;;12.38;8.95;;;;;;;0.66;74.84;99673.56;4970967;28;103408;-63
2023/11/23 02:55:58;;;;;;;13.63;10.23;;;;;;;0.68;74.27;99668.28;4984904;28;102918;-62
2023/11/23 02:58:28;;;;;;;14.95;10.10;;;;;;;0.66;74.35;99669.19;4968663;28;102884;-62
2023/11/23 03:00:56;;;;;;;13.00;8.88;;;;;;;0.59;74.47;99667.84;4981741;28;103332;-64
2023/11/23 03:03:24;;;;;;;14.48;10.55;;;;;;;0.51;74.53;99684.81;4981341;28;104463;-64
2023/11/23 03:05:52;;;;;;;11.38;7.88;;;;;;;0.53;74.72;99682.97;4977946;28;102947;-63
2023/11/23 03:08:19;;;;;;;16.33;10.90;;;;;;;0.48;75.21;99681.41;4980085;28;103921;-63
2023/11/23 03:10:48;;;;;;;12.80;9.23;;;;;;;0.54;74.95;99689.84;4978852;28;103743;-63
2023/11/23 03:13:15;;;;;;;11.35;8.50;;;;;;;0.56;75.00;99682.78;4971098;28;103382;-63
2023/11/23 03:15:45;;;;;;;15.05;8.73;;;;;;;0.64;75.08;99685.84;4981713;28;102716;-63
2023/11/23 03:18:13;;;;;;;10.93;7.95;;;;;;;0.69;74.87;99688.22;4970068;28;104029;-63
2023/11/23 03:20:42;;;;;;;14.40;10.27;;;;;;;0.68;74.57;99687.34;4982328;28;103346;-63
2023/11/23 03:23:10;;;;;;;13.00;10.02;;;;;;;0.69;74.59;99683.84;4965379;28;103056;-62
2023/11/23 03:25:38;;;;;;;11.50;8.35;;;;;;;0.69;74.33;99678.63;4971658;28;102679;-62
2023/11/23 03:28:07;;;;;;;14.15;8.95;;;;;;;0.73;74.35;99677.53;4980320;28;102878;-62
2023/11/23 03:30:35;;;;;;;11.65;8.50;;;;;;;0.72;74.18;99677.63;4983219;28;104373;-62
2023/11/23 03:33:05;;;;;;;16.55;11.60;;;;;;;0.70;74.32;99675.09;4984855;28;103181;-62
2023/11/23 03:35:35;;;;;;;13.48;9.63;;;;;;;0.71;74.59;99675.91;4983618;28;103006;-62
2023/11/23 03:38:03;;;;;;;15.50;10.68;;;;;;;0.65;74.43;99677.09;4979713;28;102726;-62
2023/11/23 03:40:31;;;;;;;13.45;9.40;;;;;;;0.68;74.63;99681.31;4969685;28;103898;-62
2023/11/23 03:42:59;;;;;;;17.42;11.95;;;;;;;0.64;74.90;99680.63;4986876;28;103300;-65
2023/11/23 03:45:29;;;;;;;12.70;9.52;;;;;;;0.55;75.08;99683.72;4980896;28;102599;-62
2023/11/23 03:47:59;;;;;;;13.20;9.50;;;;;;;0.61;74.99;99688.63;4979724;28;102759;-63
2023/11/23 03:50:28;;;;;;;13.77;9.43;;;;;;;0.66;74.83;99673.56;4984074;28;103258;-63
2023/11/23 03:52:56;;;;;;;12.35;8.35;;;;;;;0.69;74.64;99675.19;4981897;28;103043;-63
2023/11/23 03:55:24;;;;;;;12.85;9.65;;;;;;;0.72;74.29;99683.69;4985065;28;102624;-63
2023/11/23 03:57:52;;;;;;;14.35;10.05;;;;;;;0.69;74.54;99668.19;4985371;28;103140;-63
2023/11/23 04:00:21;;;;;;;12.68;8.77;;;;;;;0.67;74.41;99672.66;4984088;28;103927;-63
2023/11/23 04:02:49;;;;;;;11.50;8.32;;;;;;;0.68;74.46;99669.09;4980045;28;103242;-63
2023/11/23 04:05:18;;;;;;;12.40;8.98;;;;;;;0.72;74.51;99668.03;4986143;28;102965;-64
2023/11/23 04:07:47;;;;;;;11.90;8.43;;;;;;;0.75;74.28;99669.66;4983562;28;103954;-63
2023/11/23 04:10:15;;;;;;;13.00;9.73;;;;;;;0.73;74.17;99656.66;4980065;28;103295;-63
2023/11/23 04:12:43;;;;;;;11.98;8.73;;;;;;;0.74;74.20;99660.13;4982334;28;103324;-62
2023/11/23 04:15:12;;;;;;;11.88;8.88;;;;;;;0.74;74.14;99655.75;4966161;28;102954;-63
2023/11/23 04:17:40;;;;;;;10.98;7.80;;;;;;;0.76;74.31;99653.91;4965560;28;102754;-63
2023/11/23 04:20:09;;;;;;;11.00;7.82;;;;;;;0.75;74.00;99651.38;4980109;28;102996;-63
2023/11/23 04:22:37;;;;;;;11.40;7.45;;;;;;;0.75;74.04;99654.00;4985998;28;103160;-64
2023/11/23 04:25:07;;;;;;;14.73;9.85;;;;;;;0.76;74.11;99664.34;4986042;28;102609;-63
2023/11/23 04:27:35;;;;;;;12.55;9.20;;;;;;;0.73;74.11;99659.28;4985685;28;102811;-64
2023/11/23 04:30:04;;;;;;;11.10;8.25;;;;;;;0.72;74.71;99668.03;4968561;28;103227;-64
2023/11/23 04:32:34;;;;;;;11.38;7.95;;;;;;;0.73;74.34;99654.06;4987363;28;103211;-64
2023/11/23 04:35:02;;;;;;;10.32;7.25;;;;;;;0.74;74.23;99663.56;4969414;28;102621;-64
2023/11/23 04:37:30;;;;;;;11.20;7.72;;;;;;;0.78;74.27;99659.03;4979727;28;103776;-65
2023/11/23 04:39:58;;;;;;;10.85;7.07;;;;;;;0.77;74.36;99668.63;4984556;28;103517;-64
2023/11/23 04:42:28;;;;;;;10.57;7.03;;;;;;;0.77;74.22;99660.81;4980301;28;104247;-63
2023/11/23 04:44:55;;;;;;;11.65;8.75;;;;;;;0.75;73.90;99660.03;4989464;28;103041;-64
2023/11/23 04:47:23;;;;;;;13.75;9.73;;;;;;;0.70;73.74;99659.44;4986100;28;102705;-63
2023/11/23 04:49:51;;;;;;;10.77;7.68;;;;;;;0.61;74.04;99657.31;4981844;28;103915;-63
2023/11/23 04:52:19;;;;;;;11.77;8.27;;;;;;;0.60;74.51;99658.25;4985894;28;104375;-68
2023/11/23 04:54:47;;;;;;;11.43;7.78;;;;;;;0.64;74.79;99649.34;4991920;28;102709;-63
2023/11/23 04:57:17;;;;;;;9.15;6.50;;;;;;;0.60;74.58;99653.03;4986438;28;103903;-63
2023/11/23 04:59:46;;;;;;;10.20;6.55;;;;;;;0.57;74.82;99648.00;4984541;28;104470;-63
2023/11/23 05:02:14;;;;;;;10.50;7.07;;;;;;;0.61;74.85;99647.72;4986526;28;103221;-63
2023/11/23 05:09:08;;;;;;;9.95;6.60;;;;;;;0.56;74.94;99635.88;4982127;28;102703;-63
2023/11/23 05:11:36;;;;;;;15.75;10.20;;;;;;;0.57;74.74;99640.16;4973019;28;103248;-63
2023/11/23 05:14:07;;;;;;;12.63;8.20;;;;;;;0.57;74.76;99632.34;4986798;28;103541;-63
2023/11/23 05:16:37;;;;;;;13.57;9.43;;;;;;;0.58;74.95;99632.25;4979385;28;103722;-63
2023/11/23 05:19:10;;;;;;;12.10;8.40;;;;;;;0.58;74.86;99628.81;4987802;28;102721;-63
2023/11/23 05:21:38;;;;;;;13.57;9.60;;;;;;;0.52;74.79;99627.38;4986629;28;104108;-63
2023/11/23 05:24:08;;;;;;;12.98;9.25;;;;;;;0.55;74.91;99634.19;4993568;28;103100;-63
2023/11/23 05:26:36;;;;;;;12.95;8.60;;;;;;;0.53;74.82;99630.84;4971905;28;103375;-62
2023/11/23 05:29:06;;;;;;;10.15;7.55;;;;;;;0.55;74.99;99629.81;4980903;28;102752;-64
2023/11/23 05:31:34;;;;;;;10.95;7.50;;;;;;;0.57;74.53;99622.75;4989049;28;103398;-63
2023/11/23 05:34:05;;;;;;;10.02;6.93;;;;;;;0.60;74.75;99633.03;4969996;28;103246;-62
2023/11/23 05:36:33;;;;;;;11.65;8.13;;;;;;;0.62;74.59;99635.56;4986660;28;102667;-62
2023/11/23 05:39:00;;;;;;;10.65;7.82;;;;;;;0.56;74.73;99636.69;4987130;28;103193;-63
2023/11/23 05:41:28;;;;;;;11.05;7.47;;;;;;;0.55;74.66;99645.47;4982790;28;104298;-62
2023/11/23 05:43:58;;;;;;;10.43;6.93;;;;;;;0.55;74.74;99655.03;4987109;28;103239;-62
2023/11/23 05:46:30;;;;;;;9.60;6.43;;;;;;;0.53;75.11;99667.31;4984652;28;102624;-63
2023/11/23 05:48:58;;;;;;;11.63;8.32;;;;;;;0.46;75.22;99672.84;4987357;28;102909;-63
2023/11/23 05:51:28;;;;;;;10.32;7.10;;;;;;;0.47;75.19;99653.69;4986757;28;103312;-64
2023/11/23 05:53:56;;;;;;;8.18;5.78;;;;;;;0.46;75.13;99672.84;4984268;28;103145;-64
2023/11/23 05:56:24;;;;;;;10.75;6.80;;;;;;;0.47;74.99;99674.53;4979365;28;102636;-63
2023/11/23 05:58:53;;;;;;;9.38;6.45;;;;;;;0.41;74.81;99674.03;4980164;28;102989;-63
2023/11/23 06:01:21;;;;;;;10.65;7.03;;;;;;;0.33;75.06;99677.03;4986548;28;103656;-63
2023/11/23 06:03:50;;;;;;;11.68;8.88;;;;;;;0.29;75.26;99667.69;4981029;28;103304;-63
2023/11/23 06:06:19;;;;;;;14.50;9.85;;;;;;;0.29;75.32;99659.88;4957259;28;103033;-63
2023/11/23 06:08:49;;;;;;;12.27;8.48;;;;;;;0.20;75.58;99668.97;4987976;28;102820;-63
2023/11/23 06:11:18;;;;;;;13.10;9.45;;;;;;;0.19;75.88;99667.28;4981249;28;104347;-63
2023/11/23 06:13:46;;;;;;;12.63;8.23;;;;;;;0.11;75.77;99665.06;4983391;28;103471;-63
2023/11/23 06:16:15;;;;;;;9.60;6.68;;;;;;;0.16;75.92;99673.50;4983829;28;102634;-63
2023/11/23 06:18:43;;;;;;;12.88;7.90;;;;;;;0.20;75.78;99671.59;4978975;28;102773;-63
2023/11/23 06:21:11;;;;;;;10.60;6.97;;;;;;;0.11;75.67;99664.25;4980667;28;104147;-63
2023/11/23 06:23:39;;;;;;;12.30;7.60;;;;;;;0.16;75.68;99663.09;4983262;28;103239;-63
2023/11/23 06:26:10;;;;;;;9.00;6.40;;;;;;;0.13;75.68;99665.84;4979142;28;102903;-63
2023/11/23 06:28:38;;;;;;;10.30;6.57;;;;;;;0.13;75.62;99665.84;4987245;28;103859;-63
2023/11/23 06:31:06;;;;;;;11.55;7.63;;;;;;;0.12;75.62;99669.38;4978608;28;103317;-63
2023/11/23 06:33:34;;;;;;;10.90;6.57;;;;;;;0.12;75.66;99671.16;4975265;28;103202;-63
2023/11/23 06:36:03;;;;;;;14.27;8.40;;;;;;;0.16;75.62;99670.91;4981902;28;102910;-63
2023/11/23 06:38:31;;;;;;;10.68;6.57;;;;;;;0.11;75.63;99678.09;4989171;28;102763;-64
2023/11/23 06:40:59;;;;;;;9.23;6.88;;;;;;;0.01;75.87;99665.63;4986354;28;103309;-63
2023/11/23 06:43:31;;;;;;;12.43;8.35;;;;;;;-0.01;75.79;99663.09;4985971;28;103318;-64
2023/11/23 06:45:59;;;;;;;15.75;9.77;;;;;;;-0.17;75.98;99669.06;4985413;28;103366;-63
2023/11/23 06:48:27;;;;;;;11.68;7.88;;;;;;;-0.18;76.52;99656.97;4985307;28;103874;-63
2023/11/23 06:50:55;;;;;;;12.68;7.60;;;;;;;-0.06;76.94;99665.09;4988795;28;103361;-63
2023/11/23 06:53:23;;;;;;;11.05;7.10;;;;;;;0.03;76.85;99659.41;4982197;28;103273;-63
2023/11/23 06:55:51;;;;;;;12.98;9.00;;;;;;;0.07;76.12;99665.31;4979755;28;102652;-65
2023/11/23 06:58:19;;;;;;;10.80;7.20;;;;;;;-0.01;76.04;99663.94;4978103;28;103629;-65
2023/11/23 07:00:49;;;;;;;11.05;7.63;;;;;;;0.09;76.61;99648.69;4967430;28;104249;-64
2023/11/23 07:03:18;;;;;;;11.88;7.90;;;;;;;0.18;76.40;99651.75;4982146;28;102985;-65
2023/11/23 07:05:46;;;;;;;10.00;6.88;;;;;;;0.24;76.25;99648.84;4988210;28;102931;-65
2023/11/23 07:08:14;;;;;;;8.98;6.40;;;;;;;0.33;76.12;99648.34;4972211;28;104110;-63
2023/11/23 07:10:44;;;;;;;9.27;6.57;;;;;;;0.43;76.06;99649.56;4980312;28;103968;-63
2023/11/23 07:13:13;;;;;;;11.35;7.47;;;;;;;0.46;75.87;99640.75;4985130;28;103280;-63
2023/11/23 07:15:42;;;;;;;11.35;7.65;;;;;;;0.58;75.46;99632.25;4988631;28;102598;-63
2023/11/23 07:18:13;;;;;;;12.20;7.32;;;;;;;0.70;75.20;99628.16;4960603;28;104389;-63
2023/11/23 07:20:42;;;;;;;10.73;6.68;;;;;;;0.77;74.84;99639.97;4987892;28;104296;-62
2023/11/23 07:23:10;;;;;;;9.95;7.25;;;;;;;0.88;74.86;99625.47;4969461;28;103390;-64
2023/11/23 07:25:43;;;;;;;10.48;7.30;;;;;;;1.00;74.10;99637.84;4983625;28;102804;-64
2023/11/23 07:28:11;;;;;;;8.80;5.50;;;;;;;0.98;73.96;99639.69;4984377;28;103835;-62
2023/11/23 07:30:39;;;;;;;12.93;7.70;;;;;;;1.12;73.04;99639.78;4969227;28;103254;-62
2023/11/23 07:33:08;;;;;;;9.80;6.72;;;;;;;1.20;72.98;99643.75;4982651;28;103011;-63
2023/11/23 07:35:38;;;;;;;8.82;6.07;;;;;;;1.49;72.67;99636.88;4980304;28;102880;-62
2023/11/23 07:38:06;;;;;;;9.02;5.95;;;;;;;1.38;72.71;99639.28;4985717;28;104056;-62
2023/11/23 07:40:37;;;;;;;10.27;7.07;;;;;;;1.24;73.03;99638.25;4983379;28;105117;-62
2023/11/23 07:43:05;;;;;;;9.02;5.95;;;;;;;1.54;72.56;99634.00;4980681;28;102978;-63
2023/11/23 07:45:37;;;;;;;9.57;6.35;;;;;;;1.45;73.19;99636.19;4960586;28;102791;-63
2023/11/23 07:48:13;;;;;;;8.27;5.53;;;;;;;1.67;72.57;99629.75;4978802;28;104558;-68
2023/11/23 07:50:44;;;;;;;8.20;5.78;;;;;;;1.80;72.40;99629.91;4982336;28;103210;-63
2023/11/23 07:53:12;;;;;;;8.57;5.65;;;;;;;2.16;71.06;99623.41;4983925;28;103148;-68
2023/11/23 07:55:40;;;;;;;7.68;5.68;;;;;;;2.38;70.65;99625.59;4960958;28;103076;-63
2023/11/23 07:58:08;;;;;;;10.50;5.47;;;;;;;2.56;70.27;99625.41;4980252;28;102733;-69
2023/11/23 08:00:41;;;;;;;8.23;5.43;;;;;;;2.76;69.78;99614.53;4987764;28;103203;-68
2023/11/23 08:03:13;;;;;;;8.13;5.23;;;;;;;2.93;68.69;99621.34;4982808;28;104545;-63
2023/11/23 08:05:43;;;;;;;8.05;5.55;;;;;;;2.97;68.86;99617.59;4981600;28;102631;-65
2023/11/23 08:08:11;;;;;;;7.70;5.25;;;;;;;3.01;68.02;99620.84;4980629;28;103552;-69
2023/11/23 08:10:39;;;;;;;8.07;5.35;;;;;;;3.22;67.85;99620.44;4966105;28;104052;-70
2023/11/23 08:13:10;;;;;;;7.18;4.80;;;;;;;3.39;68.05;99622.78;4982014;28;103176;-64
2023/11/23 08:15:38;;;;;;;7.65;5.13;;;;;;;3.55;66.99;99613.94;4980837;28;102692;-64
2023/11/23 08:18:07;;;;;;;6.72;4.65;;;;;;;3.78;67.04;99626.34;4976947;28;102535;-65
2023/11/23 08:20:39;;;;;;;9.35;5.30;;;;;;;3.92;66.01;99635.94;4986390;28;103206;-65
2023/11/23 08:23:12;;;;;;;9.02;5.30;;;;;;;3.65;67.18;99636.81;4984711;28;102732;-64
2023/11/23 08:25:43;;;;;;;9.93;5.63;;;;;;;3.59;67.81;99624.13;4982407;28;102832;-68
2023/11/23 08:28:12;;;;;;;7.40;4.68;;;;;;;3.55;68.03;99621.78;4977807;28;102738;-64
2023/11/23 08:30:40;;;;;;;8.32;4.90;;;;;;;3.55;68.06;99621.78;4981226;28;102568;-64
2023/11/23 08:33:10;;;;;;;7.75;5.00;;;;;;;3.51;67.98;99615.94;4981278;28;103191;-63
2023/11/23 08:35:38;;;;;;;7.93;5.22;;;;;;;3.55;68.32;99616.56;4977445;28;102683;-70
2023/11/23 08:38:07;;;;;;;8.05;4.10;;;;;;;3.60;68.66;99627.56;4983710;28;102893;-63
2023/11/23 08:40:36;;;;;;;5.50;3.95;;;;;;;3.57;68.69;99620.75;4987189;28;104786;-63
2023/11/23 08:43:06;;;;;;;6.18;4.25;;;;;;;3.57;68.70;99615.50;4987828;28;103326;-63
2023/11/23 08:45:39;;;;;;;8.75;4.80;;;;;;;3.62;68.88;99612.59;4981942;28;102864;-63
2023/11/23 08:48:08;;;;;;;7.68;4.82;;;;;;;3.64;68.84;99611.56;4964920;28;102690;-63
2023/11/23 08:50:47;;;;;;;7.30;4.60;;;;;;;3.73;69.18;99615.34;4984960;28;102813;-64
2023/11/23 08:53:16;;;;;;;12.65;5.32;;;;;;;3.74;68.89;99603.09;4980909;28;103022;-63
2023/11/23 08:55:57;;;;;;;6.70;4.22;;;;;;;3.77;69.22;99611.59;4981081;28;102634;-63
2023/11/23 08:58:32;;;;;;;6.63;4.43;;;;;;;3.84;68.88;99606.78;4963935;28;103004;-70
2023/11/23 09:01:14;;;;;;;7.90;4.65;;;;;;;3.83;69.43;99601.66;4987859;28;103245;-70
2023/11/23 09:03:47;;;;;;;7.00;5.28;;;;;;;3.80;69.29;99595.66;4979134;28;103058;-70
2023/11/23 09:06:18;;;;;;;8.00;4.85;;;;;;;3.89;68.96;99593.34;4977414;28;102661;-70
2023/11/23 09:08:48;;;;;;;8.85;4.97;;;;;;;3.93;69.79;99593.06;4981688;28;102766;-70
2023/11/23 09:11:18;;;;;;;7.28;4.95;;;;;;;4.02;69.58;99598.59;4983452;28;103049;-70
2023/11/23 09:13:46;;;;;;;6.00;3.55;;;;;;;4.14;69.79;99601.25;4978863;28;103042;-70
2023/11/23 09:16:15;;;;;;;7.15;4.38;;;;;;;4.14;69.04;99598.63;4983080;28;102881;-69
2023/11/23 09:18:45;;;;;;;7.10;4.68;;;;;;;4.27;69.11;99577.63;4984081;28;102552;-69
2023/11/23 09:21:14;;;;;;;6.63;4.15;;;;;;;4.30;68.52;99581.84;4986494;28;103085;-63
2023/11/23 09:23:48;;;;;;;6.18;3.80;;;;;;;4.32;68.85;99590.41;4980923;28;103133;-68
2023/11/23 09:26:18;;;;;;;6.80;4.03;;;;;;;4.38;68.86;99583.94;4984265;28;103104;-65
2023/11/23 09:28:46;;;;;;;4.85;3.47;;;;;;;4.46;68.89;99592.91;4961862;28;102777;-65
2023/11/23 09:31:18;;;;;;;8.05;4.53;;;;;;;4.56;68.77;99587.03;4986649;28;103209;-69
2023/11/23 09:33:47;;;;;;;8.15;4.80;;;;;;;4.54;68.45;99578.44;4976074;28;103227;-65
2023/11/23 09:36:24;;;;;;;15.23;3.92;;;;;;;4.59;68.74;99569.28;4986338;28;102582;-66
2023/11/23 09:38:54;;;;;;;7.70;4.05;;;;;;;4.68;68.67;99559.94;4978615;28;104756;-66
2023/11/23 09:41:42;;;;;;;6.70;3.75;;;;;;;4.67;68.47;99558.25;4989241;28;103140;-65
2023/11/23 09:44:10;;;;;;;7.13;3.45;;;;;;;4.71;68.70;99549.22;4981151;28;103263;-68
2023/11/23 09:46:43;;;;;;;4.32;3.17;;;;;;;4.70;68.91;99552.78;4984910;28;102562;-69
2023/11/23 09:49:15;;;;;;;6.78;3.67;;;;;;;4.70;68.50;99544.06;4990828;28;103170;-69
2023/11/23 09:51:45;;;;;;;5.45;3.20;;;;;;;4.79;69.01;99552.16;4967302;28;103353;-65
2023/11/23 09:54:19;;;;;;;3.97;2.80;;;;;;;4.86;68.67;99547.28;4983339;28;103016;-69
2023/11/23 09:56:49;;;;;;;6.85;3.60;;;;;;;4.82;68.47;99540.56;4966633;28;102635;-69
2023/11/23 09:59:17;;;;;;;4.68;3.13;;;;;;;4.86;68.72;99530.69;4987248;28;103078;-66
2023/11/23 10:01:47;;;;;;;5.63;3.17;;;;;;;4.88;68.77;99528.81;4979787;28;103815;-65
2023/11/23 10:04:17;;;;;;;5.75;3.78;;;;;;;4.89;68.74;99514.72;4979416;28;103327;-66
2023/11/23 10:06:45;;;;;;;5.78;3.40;;;;;;;4.96;68.73;99515.94;4982227;28;102905;-65
2023/11/23 10:09:15;;;;;;;5.22;3.58;;;;;;;5.05;68.25;99520.53;4980030;28;102685;-65
2023/11/23 10:11:44;;;;;;;4.70;2.88;;;;;;;5.11;68.49;99509.56;4981898;28;103236;-65
2023/11/23 10:14:15;;;;;;;4.72;3.00;;;;;;;5.19;68.29;99501.13;4989484;28;103297;-68
2023/11/23 10:16:46;;;;;;;8.38;3.58;;;;;;;5.23;68.15;99493.88;4982050;28;102671;-70
2023/11/23 10:19:20;;;;;;;6.45;2.97;;;;;;;5.32;67.93;99490.56;4983227;28;103002;-69
2023/11/23 10:21:50;;;;;;;5.70;3.28;;;;;;;5.29;67.79;99496.03;4992906;28;103301;-65
2023/11/23 10:24:19;;;;;;;4.60;2.83;;;;;;;5.49;68.24;99486.66;4987076;28;103045;-65
2023/11/23 10:26:47;;;;;;;6.35;3.78;;;;;;;5.55;68.28;99477.47;4979806;28;103099;-65
2023/11/23 10:29:18;;;;;;;5.50;2.90;;;;;;;5.64;68.38;99476.75;4963838;28;102785;-65
2023/11/23 10:31:47;;;;;;;4.35;2.53;;;;;;;5.66;67.90;99488.00;4979638;28;103293;-69
2023/11/23 10:34:18;;;;;;;4.90;3.35;;;;;;;5.78;67.89;99481.78;4985111;28;103242;-68
2023/11/23 10:36:49;;;;;;;6.28;3.50;;;;;;;5.84;67.71;99475.22;4986860;28;102619;-71
2023/11/23 10:39:48;;;;;;;6.85;3.60;;;;;;;5.84;67.81;99472.59;4991487;28;102737;-70
2023/11/23 10:43:06;;;;;;;5.50;3.58;;;;;;;5.88;67.91;99475.81;4995619;28;104143;-69
2023/11/23 10:45:48;;;;;;;4.55;2.78;;;;;;;5.88;68.26;99475.81;4970997;28;104063;-70
2023/11/23 10:48:22;;;;;;;3.55;2.42;;;;;;;5.93;68.43;99473.66;4959458;28;103255;-69
2023/11/23 10:50:50;;;;;;;;;;;;;;;5.82;68.11;99464.81;4982814;28;102867;-69
2023/11/23 10:53:19;;;;;;;4.78;2.53;;;;;;;5.95;68.13;99462.09;4982068;28;104249;-71
2023/11/23 10:55:51;;;;;;;6.00;3.00;;;;;;;6.02;68.29;99462.47;4977954;28;103210;-69
2023/11/23 10:58:21;;;;;;;5.47;2.93;;;;;;;6.01;68.34;99460.78;4990413;28;102942;-66
2023/11/23 11:00:52;;;;;;;5.90;2.95;;;;;;;6.11;68.30;99453.84;4977630;28;102757;-70
2023/11/23 11:03:23;;;;;;;5.40;2.90;;;;;;;6.16;67.60;99444.75;4985897;28;103120;-70
2023/11/23 11:05:55;;;;;;;4.28;2.40;;;;;;;6.21;68.17;99447.84;4961057;28;103193;-69
2023/11/23 11:08:30;;;;;;;4.35;2.40;;;;;;;6.29;67.82;99432.31;4980437;28;102852;-69
2023/11/23 11:10:58;;;;;;;9.13;3.88;;;;;;;6.32;67.52;99437.34;4982829;28;103941;-70
2023/11/23 11:13:28;;;;;;;6.10;3.00;;;;;;;6.36;67.37;99430.03;4980834;28;103242;-70
2023/11/23 11:15:59;;;;;;;3.75;2.33;;;;;;;6.47;67.70;99425.56;4978635;28;103177;-69
2023/11/23 11:18:29;;;;;;;5.22;3.00;;;;;;;6.48;67.39;99423.78;4965506;28;102848;-69
2023/11/23 11:21:01;;;;;;;4.47;2.45;;;;;;;6.54;67.41;99419.81;4963026;28;102822;-70
2023/11/23 11:23:37;;;;;;;5.05;2.92;;;;;;;6.52;67.35;99421.75;4977908;28;103297;-70
2023/11/23 11:26:10;;;;;;;5.15;2.85;;;;;;;6.54;67.58;99419.81;4968057;28;104264;-69
2023/11/23 11:28:39;;;;;;;5.88;2.50;;;;;;;6.45;66.82;99422.22;4959969;28;102902;-69
2023/11/23 11:31:13;;;;;;;3.50;2.35;;;;;;;6.57;67.38;99430.09;4978808;28;104465;-70
2023/11/23 11:33:41;;;;;;;4.35;2.70;;;;;;;6.59;66.55;99426.38;4981408;28;103254;-70
2023/11/23 11:36:12;;;;;;;4.63;2.10;;;;;;;6.57;67.13;99424.84;4958334;28;103277;-70
2023/11/23 11:38:43;;;;;;;4.07;2.38;;;;;;;6.65;67.29;99425.03;4982474;28;102797;-66
2023/11/23 11:41:11;;;;;;;4.10;2.53;;;;;;;6.61;66.29;99418.34;4981166;28;103681;-66
2023/11/23 11:43:41;;;;;;;3.97;2.60;;;;;;;6.70;67.10;99409.69;4964481;28;104148;-66